createdAt,value
2018-12-29T00:00:57.464Z,22.60
2018-12-29T00:03:27.640Z,23.50
2018-12-29T00:05:57.856Z,22.83
2018-12-29T00:08:28.057Z,25.00
2018-12-29T00:10:58.408Z,23.70
2018-12-29T00:13:29.116Z,22.30
2018-12-29T00:15:59.721Z,21.60
2018-12-29T00:18:29.970Z,23.00
2018-12-29T00:21:00.970Z,22.20
2018-12-29T00:23:31.262Z,22.67
2018-12-29T00:26:01.824Z,22.27
2018-12-29T00:28:32.373Z,22.00
2018-12-29T00:31:02.661Z,21.03
2018-12-29T00:33:32.947Z,21.90
2018-12-29T00:36:02.976Z,21.90
2018-12-29T00:38:32.895Z,21.07
2018-12-29T00:41:02.919Z,22.07
2018-12-29T00:43:33.297Z,20.33
2018-12-29T00:46:03.349Z,19.53
2018-12-29T00:48:33.440Z,19.90
2018-12-29T00:51:03.765Z,21.60
2018-12-29T00:53:33.708Z,19.40
2018-12-29T00:56:03.769Z,19.77
2018-12-29T00:58:33.726Z,18.97
2018-12-29T01:01:03.689Z,20.27
2018-12-29T01:03:33.652Z,19.57
2018-12-29T01:06:04.441Z,19.53
2018-12-29T01:08:35.165Z,18.07
2018-12-29T01:11:05.108Z,18.50
2018-12-29T01:13:34.996Z,18.17
2018-12-29T01:16:04.961Z,18.17
2018-12-29T01:18:34.913Z,17.63
2018-12-29T01:21:06.109Z,19.90
2018-12-29T01:23:36.033Z,18.40
2018-12-29T01:26:05.972Z,17.70
2018-12-29T01:28:35.901Z,17.73
2018-12-29T01:31:05.837Z,17.70
2018-12-29T01:33:35.827Z,18.50
2018-12-29T01:36:05.805Z,17.40
2018-12-29T01:38:35.724Z,17.13
2018-12-29T01:41:05.661Z,18.20
2018-12-29T01:43:35.585Z,17.83
2018-12-29T01:46:05.875Z,16.03
2018-12-29T01:48:36.085Z,16.07
2018-12-29T01:51:06.321Z,15.90
2018-12-29T01:53:36.266Z,16.50
2018-12-29T01:56:06.201Z,15.40
2018-12-29T01:58:36.177Z,15.33
2018-12-29T02:01:07.046Z,14.67
2018-12-29T02:03:37.038Z,14.70
2018-12-29T02:06:07.317Z,15.73
2018-12-29T02:08:38.321Z,15.73
2018-12-29T02:11:08.334Z,15.97
2018-12-29T02:13:38.544Z,16.23
2018-12-29T02:16:08.838Z,14.70
2018-12-29T02:18:39.023Z,16.47
2018-12-29T02:21:09.077Z,16.20
2018-12-29T02:23:39.473Z,15.90
2018-12-29T02:26:10.005Z,15.03
2018-12-29T02:28:40.009Z,15.67
2018-12-29T02:31:09.933Z,14.63
2018-12-29T02:33:39.981Z,15.03
2018-12-29T02:36:09.968Z,14.10
2018-12-29T02:38:40.214Z,15.67
2018-12-29T02:41:10.137Z,15.77
2018-12-29T02:43:40.621Z,13.40
2018-12-29T02:46:10.837Z,15.17
2018-12-29T02:48:41.028Z,16.90
2018-12-29T02:51:11.229Z,16.00
2018-12-29T02:53:41.538Z,16.70
2018-12-29T02:56:11.778Z,15.90
2018-12-29T02:58:41.978Z,14.17
2018-12-29T03:01:11.932Z,16.10
2018-12-29T03:03:41.997Z,16.70
2018-12-29T03:06:12.243Z,15.63
2018-12-29T03:08:42.504Z,15.70
2018-12-29T03:11:12.905Z,15.93
2018-12-29T03:13:43.973Z,18.27
2018-12-29T03:16:14.146Z,18.03
2018-12-29T03:18:44.095Z,19.00
2018-12-29T03:21:16.043Z,17.90
2018-12-29T03:23:46.250Z,18.20
2018-12-29T03:26:17.136Z,17.60
2018-12-29T03:28:47.361Z,17.97
2018-12-29T03:31:17.323Z,19.40
2018-12-29T03:33:47.499Z,18.60
2018-12-29T03:36:17.977Z,20.33
2018-12-29T03:38:48.985Z,20.97
2018-12-29T03:41:19.717Z,20.07
2018-12-29T03:43:56.640Z,19.03
2018-12-29T03:46:26.926Z,18.30
2018-12-29T03:48:56.985Z,20.13
2018-12-29T03:51:26.946Z,20.47
2018-12-29T03:53:56.999Z,21.10
2018-12-29T03:56:27.174Z,21.27
2018-12-29T03:58:58.199Z,21.13
2018-12-29T04:01:28.434Z,20.23
2018-12-29T04:03:58.821Z,19.10
2018-12-29T04:06:29.047Z,21.77
2018-12-29T04:09:35.750Z,23.00
2018-12-29T04:12:25.593Z,22.77
2018-12-29T04:14:55.553Z,22.30
2018-12-29T04:17:25.811Z,20.13
2018-12-29T04:19:56.068Z,21.97
2018-12-29T04:22:27.342Z,23.47
2018-12-29T04:24:57.366Z,22.47
2018-12-29T04:27:27.346Z,20.93
2018-12-29T04:29:57.278Z,22.40
2018-12-29T04:32:27.397Z,21.60
2018-12-29T04:34:57.620Z,20.40
2018-12-29T04:37:27.596Z,22.40
2018-12-29T04:39:57.528Z,20.13
2018-12-29T04:42:27.697Z,20.83
2018-12-29T04:44:57.662Z,21.17
2018-12-29T04:47:27.809Z,20.97
2018-12-29T04:49:57.781Z,21.10
2018-12-29T04:52:28.001Z,21.47
2018-12-29T04:54:58.205Z,21.10
2018-12-29T04:57:28.141Z,22.00
2018-12-29T04:59:58.149Z,21.27
2018-12-29T05:02:28.229Z,21.40
2018-12-29T05:04:58.621Z,21.37
2018-12-29T05:07:29.062Z,23.27
2018-12-29T05:09:59.057Z,19.70
2018-12-29T05:12:29.020Z,21.80
2018-12-29T05:14:59.097Z,22.80
2018-12-29T05:17:29.137Z,22.57
2018-12-29T05:19:59.053Z,22.10
2018-12-29T05:22:29.002Z,21.17
2018-12-29T05:24:58.932Z,22.07
2018-12-29T05:27:28.997Z,21.07
2018-12-29T05:29:58.926Z,20.43
2018-12-29T05:32:29.081Z,20.97
2018-12-29T05:34:59.061Z,22.00
2018-12-29T05:37:29.109Z,22.00
2018-12-29T05:39:59.094Z,21.67
2018-12-29T05:42:29.105Z,23.90
2018-12-29T05:44:59.063Z,25.20
2018-12-29T05:47:29.089Z,23.77
2018-12-29T05:49:59.074Z,24.20
2018-12-29T05:52:29.725Z,23.83
2018-12-29T05:54:59.699Z,24.63
2018-12-29T05:57:29.710Z,22.10
2018-12-29T06:00:00.372Z,24.70
2018-12-29T06:02:30.329Z,24.30
2018-12-29T06:05:00.364Z,25.53
2018-12-29T06:07:30.312Z,23.97
2018-12-29T06:10:00.281Z,25.20
2018-12-29T06:12:30.272Z,23.30
2018-12-29T06:15:00.424Z,25.50
2018-12-29T06:17:30.371Z,26.43
2018-12-29T06:20:00.328Z,25.67
2018-12-29T06:22:30.369Z,24.13
2018-12-29T06:25:00.517Z,24.93
2018-12-29T06:27:30.485Z,26.33
2018-12-29T06:30:00.449Z,24.97
2018-12-29T06:32:30.401Z,25.07
2018-12-29T06:35:00.349Z,25.10
2018-12-29T06:37:30.337Z,26.07
2018-12-29T06:40:00.333Z,26.03
2018-12-29T06:42:30.445Z,27.90
2018-12-29T06:45:00.418Z,26.93
2018-12-29T06:47:30.350Z,29.40
2018-12-29T06:50:00.308Z,27.90
2018-12-29T06:52:30.243Z,27.63
2018-12-29T06:55:00.264Z,28.57
2018-12-29T06:57:30.557Z,28.20
2018-12-29T07:00:00.493Z,28.27
2018-12-29T07:02:30.743Z,28.70
2018-12-29T07:05:00.937Z,28.60
2018-12-29T07:07:30.945Z,26.27
2018-12-29T07:10:01.141Z,28.03
2018-12-29T07:12:31.321Z,28.70
2018-12-29T07:15:02.175Z,27.80
2018-12-29T07:17:32.141Z,29.93
2018-12-29T07:20:03.281Z,28.17
2018-12-29T07:22:33.977Z,28.17
2018-12-29T07:25:03.894Z,29.57
2018-12-29T07:27:33.817Z,27.67
2018-12-29T07:30:04.409Z,28.73
2018-12-29T07:32:34.710Z,28.40
2018-12-29T07:35:05.198Z,26.20
2018-12-29T07:37:35.728Z,28.10
2018-12-29T07:40:06.160Z,27.43
2018-12-29T07:42:36.085Z,29.53
2018-12-29T07:45:06.277Z,27.37
2018-12-29T07:47:36.193Z,28.80
2018-12-29T07:50:06.318Z,28.70
2018-12-29T07:52:36.268Z,27.37
2018-12-29T07:55:06.369Z,26.13
2018-12-29T07:57:36.517Z,25.60
2018-12-29T08:00:07.609Z,28.60
2018-12-29T08:02:38.037Z,26.30
2018-12-29T08:05:08.774Z,28.00
2018-12-29T08:07:38.825Z,30.03
2018-12-29T08:10:09.353Z,26.47
2018-12-29T08:12:39.821Z,25.90
2018-12-29T08:15:09.829Z,26.67
2018-12-29T08:17:40.250Z,24.73
2018-12-29T08:20:10.311Z,24.33
2018-12-29T08:22:40.425Z,23.60
2018-12-29T08:25:10.670Z,25.00
2018-12-29T08:27:40.783Z,23.20
2018-12-29T08:30:11.019Z,22.13
2018-12-29T08:32:41.486Z,22.07
2018-12-29T08:35:11.443Z,22.87
2018-12-29T08:37:41.520Z,21.70
2018-12-29T08:40:11.633Z,22.90
2018-12-29T08:42:41.653Z,20.47
2018-12-29T08:45:11.612Z,20.03
2018-12-29T08:47:42.911Z,20.90
2018-12-29T08:50:13.478Z,19.60
2018-12-29T08:52:44.169Z,21.40
2018-12-29T08:55:14.105Z,19.53
2018-12-29T08:57:44.042Z,20.10
2018-12-29T09:00:14.006Z,19.90
2018-12-29T09:02:45.597Z,19.10
2018-12-29T09:05:16.001Z,17.93
2018-12-29T09:07:46.025Z,16.43
2018-12-29T09:10:16.022Z,20.10
2018-12-29T09:12:46.026Z,20.47
2018-12-29T09:15:16.916Z,19.80
2018-12-29T09:17:46.829Z,19.40
2018-12-29T09:20:16.821Z,19.20
2018-12-29T09:22:47.265Z,29.30
2018-12-29T09:25:17.288Z,33.77
2018-12-29T09:27:47.201Z,25.10
2018-12-29T09:30:17.235Z,20.60
2018-12-29T09:32:47.498Z,18.83
2018-12-29T09:35:17.942Z,21.13
2018-12-29T09:37:47.869Z,22.60
2018-12-29T09:40:17.825Z,22.37
2018-12-29T09:42:48.115Z,23.60
2018-12-29T09:45:18.073Z,21.63
2018-12-29T09:47:48.107Z,23.87
2018-12-29T09:50:18.145Z,24.63
2018-12-29T09:52:48.809Z,23.97
2018-12-29T09:55:18.846Z,22.00
2018-12-29T09:57:48.833Z,24.20
2018-12-29T10:00:18.810Z,24.33
2018-12-29T10:02:49.989Z,23.90
2018-12-29T10:05:19.925Z,21.50
2018-12-29T10:07:49.838Z,21.93
2018-12-29T10:10:19.812Z,21.90
2018-12-29T10:12:49.866Z,23.10
2018-12-29T10:15:19.817Z,23.30
2018-12-29T10:17:50.171Z,21.73
2018-12-29T10:20:20.737Z,22.43
2018-12-29T10:22:50.775Z,21.70
2018-12-29T10:25:21.727Z,23.67
2018-12-29T10:27:52.232Z,21.47
2018-12-29T10:30:22.334Z,22.33
2018-12-29T10:32:57.182Z,22.63
2018-12-29T10:35:31.824Z,23.27
2018-12-29T10:38:01.862Z,23.77
2018-12-29T10:40:33.540Z,22.13
2018-12-29T10:43:03.625Z,22.10
2018-12-29T10:45:33.589Z,20.73
2018-12-29T10:48:03.562Z,21.43
2018-12-29T10:50:33.541Z,21.60
2018-12-29T10:53:03.757Z,20.90
2018-12-29T10:55:33.732Z,21.13
2018-12-29T10:58:04.141Z,20.97
2018-12-29T11:00:35.144Z,20.17
2018-12-29T11:03:05.256Z,18.27
2018-12-29T11:05:35.242Z,20.33
2018-12-29T11:08:05.193Z,18.60
2018-12-29T11:10:35.269Z,18.83
2018-12-29T11:13:05.626Z,19.63
2018-12-29T11:15:35.541Z,18.30
2018-12-29T11:18:05.729Z,18.57
2018-12-29T11:20:35.711Z,18.77
2018-12-29T11:23:05.650Z,20.00
2018-12-29T11:25:35.584Z,19.40
2018-12-29T11:28:05.784Z,17.97
2018-12-29T11:30:35.851Z,19.70
2018-12-29T11:33:06.230Z,19.30
2018-12-29T11:35:36.198Z,19.33
2018-12-29T11:38:06.441Z,19.93
2018-12-29T11:40:36.432Z,18.20
2018-12-29T11:43:07.102Z,18.67
2018-12-29T11:45:37.658Z,20.10
2018-12-29T11:48:07.678Z,19.33
2018-12-29T11:50:37.689Z,20.30
2018-12-29T11:53:07.682Z,20.03
2018-12-29T11:55:37.633Z,18.13
2018-12-29T11:58:07.745Z,19.80
2018-12-29T12:00:38.056Z,20.73
2018-12-29T12:03:07.965Z,17.60
2018-12-29T12:05:37.933Z,19.10
2018-12-29T12:08:08.765Z,19.93
2018-12-29T12:10:38.742Z,17.67
2018-12-29T12:13:08.698Z,19.27
2018-12-29T12:15:38.738Z,19.70
2018-12-29T12:18:08.702Z,18.93
2018-12-29T12:20:38.688Z,17.33
2018-12-29T12:23:08.664Z,18.63
2018-12-29T12:25:39.133Z,18.50
2018-12-29T12:28:10.029Z,18.10
2018-12-29T12:30:40.832Z,16.63
2018-12-29T12:33:11.099Z,17.60
2018-12-29T12:35:41.040Z,18.33
2018-12-29T12:38:11.759Z,18.10
2018-12-29T12:40:42.777Z,18.67
2018-12-29T12:43:13.202Z,17.37
2018-12-29T12:45:43.629Z,17.70
2018-12-29T12:48:13.681Z,17.97
2018-12-29T12:50:43.710Z,18.17
2018-12-29T12:53:13.858Z,17.03
2018-12-29T12:55:44.117Z,17.03
2018-12-29T12:58:15.293Z,18.07
2018-12-29T13:00:45.740Z,19.43
2018-12-29T13:03:16.367Z,17.43
2018-12-29T13:05:46.325Z,17.77
2018-12-29T13:08:16.465Z,18.07
2018-12-29T13:10:46.413Z,18.50
2018-12-29T13:13:16.453Z,18.53
2018-12-29T13:15:46.817Z,17.30
2018-12-29T13:18:16.756Z,18.37
2018-12-29T13:20:46.761Z,17.17
2018-12-29T13:23:17.719Z,16.03
2018-12-29T13:25:47.639Z,18.00
2018-12-29T13:28:17.774Z,16.60
2018-12-29T13:30:47.830Z,17.93
2018-12-29T13:33:17.794Z,15.77
2018-12-29T13:35:47.772Z,16.90
2018-12-29T13:38:18.446Z,16.40
2018-12-29T13:40:48.408Z,16.27
2018-12-29T13:43:18.281Z,16.60
2018-12-29T13:45:48.249Z,17.07
2018-12-29T13:48:20.663Z,15.43
2018-12-29T13:50:51.042Z,16.60
2018-12-29T13:53:20.993Z,14.60
2018-12-29T13:55:59.704Z,16.07
2018-12-29T13:58:29.794Z,15.23
2018-12-29T14:01:00.121Z,16.43
2018-12-29T14:03:38.058Z,16.93
2018-12-29T14:06:08.357Z,15.93
2018-12-29T14:08:38.540Z,16.07
2018-12-29T14:11:08.485Z,18.90
2018-12-29T14:13:38.410Z,17.70
2018-12-29T14:16:08.747Z,18.03
2018-12-29T14:18:38.672Z,16.50
2018-12-29T14:21:09.309Z,17.83
2018-12-29T14:23:39.264Z,16.13
2018-12-29T14:26:09.193Z,16.37
2018-12-29T14:28:39.453Z,14.70
2018-12-29T14:31:09.422Z,17.63
2018-12-29T14:33:39.387Z,17.20
2018-12-29T14:36:09.327Z,16.13
2018-12-29T14:38:39.271Z,16.90
2018-12-29T14:41:09.328Z,16.50
2018-12-29T14:43:39.736Z,18.50
2018-12-29T14:46:09.782Z,15.50
2018-12-29T14:48:39.741Z,13.77
2018-12-29T14:51:09.837Z,16.33
2018-12-29T14:53:39.825Z,17.90
2018-12-29T14:56:09.995Z,17.60
2018-12-29T14:58:39.953Z,16.40
2018-12-29T15:01:09.861Z,18.23
2018-12-29T15:03:39.804Z,16.43
2018-12-29T15:06:10.081Z,15.73
2018-12-29T15:08:40.397Z,17.10
2018-12-29T15:11:10.390Z,18.33
2018-12-29T15:13:40.377Z,16.63
2018-12-29T15:16:10.334Z,15.83
2018-12-29T15:18:44.010Z,17.10
2018-12-29T15:21:14.641Z,17.07
2018-12-29T15:23:45.028Z,17.87
2018-12-29T15:26:15.465Z,18.00
2018-12-29T15:28:46.152Z,17.87
2018-12-29T15:31:16.552Z,16.60
2018-12-29T15:33:46.953Z,15.93
2018-12-29T15:36:17.325Z,15.93
2018-12-29T15:38:47.293Z,17.70
2018-12-29T15:41:17.419Z,17.23
2018-12-29T15:43:49.082Z,19.43
2018-12-29T15:46:19.065Z,23.57
2018-12-29T15:48:51.118Z,20.83
2018-12-29T15:51:20.720Z,19.53
2018-12-29T15:53:50.757Z,16.30
2018-12-29T15:56:21.049Z,17.70
2018-12-29T15:58:51.064Z,17.63
2018-12-29T16:01:21.249Z,21.83
2018-12-29T16:03:51.262Z,20.00
2018-12-29T16:06:21.283Z,18.50
2018-12-29T16:08:51.202Z,17.30
2018-12-29T16:11:26.316Z,17.33
2018-12-29T16:13:53.020Z,15.50
2018-12-29T16:16:22.981Z,17.30
2018-12-29T16:18:58.831Z,16.37
2018-12-29T16:21:24.949Z,18.33
2018-12-29T16:23:54.933Z,17.73
2018-12-29T16:26:24.917Z,19.13
2018-12-29T16:28:54.850Z,17.53
2018-12-29T16:31:24.833Z,18.47
2018-12-29T16:33:54.933Z,20.60
2018-12-29T16:36:25.444Z,19.43
2018-12-29T16:38:56.965Z,17.87
2018-12-29T16:41:26.844Z,19.07
2018-12-29T16:43:57.030Z,19.70
2018-12-29T16:46:26.997Z,19.20
2018-12-29T16:48:57.065Z,18.90
2018-12-29T16:51:27.080Z,18.57
2018-12-29T16:53:57.005Z,19.27
2018-12-29T16:56:26.906Z,19.93
2018-12-29T16:58:56.865Z,19.93
2018-12-29T17:01:27.026Z,19.37
2018-12-29T17:03:57.097Z,20.43
2018-12-29T17:06:27.133Z,18.97
2018-12-29T17:08:57.097Z,20.00
2018-12-29T17:11:27.560Z,20.03
2018-12-29T17:13:59.812Z,19.03
2018-12-29T17:16:35.857Z,19.60
2018-12-29T17:19:05.758Z,20.60
2018-12-29T17:21:38.921Z,18.77
2018-12-29T17:24:09.330Z,18.87
2018-12-29T17:26:39.244Z,18.70
2018-12-29T17:29:09.438Z,18.30
2018-12-29T17:31:39.509Z,16.33
2018-12-29T17:34:09.877Z,17.10
2018-12-29T17:36:42.051Z,17.07
2018-12-29T17:39:11.583Z,17.67
2018-12-29T17:41:41.602Z,15.63
2018-12-29T17:44:11.630Z,16.57
2018-12-29T17:46:42.035Z,16.13
2018-12-29T17:49:12.241Z,17.33
2018-12-29T17:51:42.297Z,16.50
2018-12-29T17:54:12.393Z,16.70
2018-12-29T17:56:42.453Z,16.10
2018-12-29T17:59:12.626Z,15.77
2018-12-29T18:01:42.652Z,18.57
2018-12-29T18:04:12.612Z,17.70
2018-12-29T18:06:42.605Z,17.23
2018-12-29T18:09:12.653Z,15.90
2018-12-29T18:11:42.689Z,15.90
2018-12-29T18:14:12.669Z,16.10
2018-12-29T18:16:43.728Z,15.50
2018-12-29T18:19:13.982Z,16.10
2018-12-29T18:21:44.208Z,16.00
2018-12-29T18:24:14.132Z,15.40
2018-12-29T18:26:44.216Z,14.60
2018-12-29T18:29:14.861Z,14.63
2018-12-29T18:31:44.837Z,14.27
2018-12-29T18:34:14.881Z,14.80
2018-12-29T18:36:45.368Z,14.20
2018-12-29T18:39:15.345Z,14.70
2018-12-29T18:41:45.330Z,14.00
2018-12-29T18:44:17.742Z,14.93
2018-12-29T18:46:48.183Z,13.50
2018-12-29T18:49:20.385Z,12.20
2018-12-29T18:51:50.417Z,11.97
2018-12-29T18:54:20.414Z,13.37
2018-12-29T18:56:50.701Z,13.20
2018-12-29T18:59:20.904Z,13.20
2018-12-29T19:01:57.643Z,12.37
2018-12-29T19:04:23.197Z,13.67
2018-12-29T19:06:53.233Z,12.57
2018-12-29T19:09:23.178Z,12.77
2018-12-29T19:11:53.168Z,13.10
2018-12-29T19:14:23.677Z,11.47
2018-12-29T19:16:54.105Z,12.07
2018-12-29T19:19:25.918Z,12.00
2018-12-29T19:21:55.979Z,13.13
2018-12-29T19:24:25.939Z,13.47
2018-12-29T19:26:55.865Z,11.87
2018-12-29T19:29:25.878Z,12.30
2018-12-29T19:31:56.455Z,13.60
2018-12-29T19:34:26.961Z,13.33
2018-12-29T19:36:57.173Z,12.57
2018-12-29T19:39:27.409Z,12.07
2018-12-29T19:41:57.432Z,13.13
2018-12-29T19:44:29.033Z,12.60
2018-12-29T19:46:59.297Z,13.10
2018-12-29T19:49:29.928Z,13.10
2018-12-29T19:52:00.441Z,14.43
2018-12-29T19:54:31.233Z,15.03
2018-12-29T19:57:01.701Z,15.63
2018-12-29T19:59:32.142Z,17.77
2018-12-29T20:02:02.527Z,16.03
2018-12-29T20:04:32.553Z,16.03
2018-12-29T20:07:02.821Z,16.20
2018-12-29T20:09:32.791Z,16.60
2018-12-29T20:12:03.022Z,15.63
2018-12-29T20:14:33.177Z,16.97
2018-12-29T20:17:03.526Z,15.33
2018-12-29T20:19:34.855Z,15.13
2018-12-29T20:22:04.976Z,13.80
2018-12-29T20:24:35.319Z,17.27
2018-12-29T20:27:05.278Z,17.07
2018-12-29T20:29:40.254Z,16.97
2018-12-29T20:32:11.016Z,15.57
2018-12-29T20:34:41.381Z,15.30
2018-12-29T20:37:11.375Z,16.30
2018-12-29T20:39:41.277Z,14.83
2018-12-29T20:42:11.452Z,14.10
2018-12-29T20:44:41.418Z,13.37
2018-12-29T20:47:11.755Z,14.03
2018-12-29T20:49:41.697Z,13.80
2018-12-29T20:52:15.477Z,13.00
2018-12-29T20:54:48.691Z,13.43
2018-12-29T20:57:18.759Z,11.40
2018-12-29T20:59:48.925Z,11.77
2018-12-29T21:02:18.895Z,11.47
2018-12-29T21:04:49.093Z,9.60
2018-12-29T21:07:21.580Z,9.30
2018-12-29T21:09:51.565Z,8.50
2018-12-29T21:12:25.765Z,6.80
2018-12-29T21:14:55.821Z,7.80
2018-12-29T21:17:25.877Z,7.20
2018-12-29T21:19:56.225Z,6.70
2018-12-29T21:22:26.389Z,6.40
2018-12-29T21:24:56.533Z,6.30
2018-12-29T21:27:26.721Z,6.33
2018-12-29T21:29:56.701Z,6.30
2018-12-29T21:32:27.257Z,6.00
2018-12-29T21:34:57.501Z,6.00
2018-12-29T21:37:27.485Z,4.97
2018-12-29T21:39:57.538Z,5.17
2018-12-29T21:42:27.579Z,5.57
2018-12-29T21:44:58.281Z,4.80
2018-12-29T21:47:28.566Z,4.67
2018-12-29T21:49:58.553Z,5.40
2018-12-29T21:52:28.749Z,5.10
2018-12-29T21:55:01.959Z,5.00
2018-12-29T21:57:32.025Z,4.80
2018-12-29T22:00:02.062Z,5.43
2018-12-29T22:02:32.727Z,5.47
2018-12-29T22:05:02.935Z,4.97
2018-12-29T22:07:32.961Z,5.47
2018-12-29T22:10:02.986Z,5.60
2018-12-29T22:12:32.928Z,5.40
2018-12-29T22:15:03.246Z,5.20
2018-12-29T22:17:33.885Z,5.97
2018-12-29T22:20:04.141Z,4.60
2018-12-29T22:22:34.333Z,5.50
2018-12-29T22:25:04.985Z,6.20
2018-12-29T22:27:34.993Z,6.03
2018-12-29T22:30:05.459Z,6.13
2018-12-29T22:32:35.496Z,5.57
2018-12-29T22:35:05.865Z,5.80
2018-12-29T22:37:35.871Z,5.20
2018-12-29T22:40:06.022Z,5.80
2018-12-29T22:42:35.995Z,5.53
2018-12-29T22:45:06.485Z,5.57
2018-12-29T22:47:36.509Z,5.67
2018-12-29T22:50:07.013Z,6.10
2018-12-29T22:52:37.395Z,6.03
2018-12-29T22:55:08.227Z,5.20
2018-12-29T22:57:38.619Z,6.40
2018-12-29T23:00:14.978Z,6.30
2018-12-29T23:02:45.153Z,5.77
2018-12-29T23:05:17.113Z,7.00
2018-12-29T23:07:47.364Z,5.33
2018-12-29T23:10:17.432Z,6.17
2018-12-29T23:12:47.876Z,5.83
2018-12-29T23:15:18.010Z,6.27
2018-12-29T23:17:48.599Z,6.40
2018-12-29T23:20:18.486Z,6.17
2018-12-29T23:22:49.514Z,7.50
2018-12-29T23:25:19.459Z,6.80
2018-12-29T23:27:49.592Z,5.97
2018-12-29T23:30:20.413Z,6.40
2018-12-29T23:32:50.737Z,5.50
2018-12-29T23:35:22.169Z,5.40
2018-12-29T23:37:52.248Z,5.53
2018-12-29T23:40:22.228Z,5.90
2018-12-29T23:42:53.577Z,5.10
2018-12-29T23:45:23.488Z,5.00
2018-12-29T23:47:53.450Z,5.17
2018-12-29T23:50:23.925Z,5.80
2018-12-29T23:52:54.261Z,5.63
2018-12-29T23:55:24.408Z,6.00
2018-12-29T23:57:54.367Z,4.70
